createdAt,value
2018-08-09T00:02:27.478Z,3
2018-08-09T00:05:27.796Z,2.8
2018-08-09T00:08:27.547Z,3.1
2018-08-09T00:14:27.784Z,3.5
2018-08-09T00:17:27.638Z,2.7
2018-08-09T00:20:27.574Z,2.7
2018-08-09T00:23:27.680Z,2.8
2018-08-09T00:26:27.680Z,3
2018-08-09T00:29:27.645Z,2.8
2018-08-09T00:32:27.695Z,4.1
2018-08-09T00:35:27.704Z,2.7
2018-08-09T00:38:27.703Z,2.5
2018-08-09T00:44:27.845Z,3.8
2018-08-09T00:47:27.772Z,2.9
2018-08-09T00:50:27.511Z,2.9
2018-08-09T00:53:27.651Z,3
2018-08-09T00:56:27.476Z,2.7
2018-08-09T00:59:27.562Z,2.9
2018-08-09T01:02:27.719Z,2.8
2018-08-09T01:05:27.538Z,3
2018-08-09T01:08:27.624Z,2.8
2018-08-09T01:14:27.691Z,2.8
2018-08-09T01:17:27.532Z,2.8
2018-08-09T01:20:27.596Z,3
2018-08-09T01:23:27.556Z,2.7
2018-08-09T01:26:27.457Z,2.9
2018-08-09T01:29:27.527Z,3
2018-08-09T01:32:27.558Z,3.1
2018-08-09T01:35:27.583Z,2.7
2018-08-09T01:38:27.587Z,3
2018-08-09T01:44:27.848Z,2.9
2018-08-09T01:47:27.509Z,2.8
2018-08-09T01:50:27.555Z,3.1
2018-08-09T01:53:27.546Z,3
2018-08-09T01:56:27.525Z,2.8
2018-08-09T01:59:27.543Z,3.5
2018-08-09T02:02:27.464Z,2.8
2018-08-09T02:05:27.455Z,2.7
2018-08-09T02:08:27.608Z,2.8
2018-08-09T02:14:27.489Z,3.1
2018-08-09T02:17:27.702Z,2.8
2018-08-09T02:20:27.540Z,2.9
2018-08-09T02:23:27.580Z,2.9
2018-08-09T02:26:27.834Z,2.8
2018-08-09T02:29:27.524Z,2.9
2018-08-09T02:32:27.545Z,2.7
2018-08-09T02:35:27.486Z,3
2018-08-09T02:38:27.644Z,3.1
2018-08-09T02:44:27.515Z,3
2018-08-09T02:47:27.580Z,3
2018-08-09T02:50:27.655Z,2.8
2018-08-09T02:53:27.553Z,3
2018-08-09T02:56:27.541Z,2.8
2018-08-09T02:59:27.684Z,3.1
2018-08-09T03:02:27.912Z,2.7
2018-08-09T03:05:27.495Z,2.8
2018-08-09T03:08:27.500Z,2.7
2018-08-09T03:14:27.865Z,3.5
2018-08-09T03:17:27.607Z,2.9
2018-08-09T03:20:27.463Z,2.9
2018-08-09T03:23:27.551Z,3.1
2018-08-09T03:26:27.907Z,2.9
2018-08-09T03:29:27.587Z,3.1
2018-08-09T03:32:28.018Z,2.9
2018-08-09T03:35:27.892Z,2.9
2018-08-09T03:38:27.448Z,3.1
2018-08-09T03:44:27.545Z,2.9
2018-08-09T03:47:27.466Z,2.9
2018-08-09T03:50:27.552Z,2.9
2018-08-09T03:53:27.599Z,3
2018-08-09T03:56:27.636Z,3
2018-08-09T03:59:27.487Z,2.8
2018-08-09T04:02:27.618Z,3
2018-08-09T04:05:27.544Z,3
2018-08-09T04:08:27.423Z,3
2018-08-09T04:14:27.592Z,3.1
2018-08-09T04:17:27.794Z,2.9
2018-08-09T04:20:27.537Z,2.8
2018-08-09T04:23:27.544Z,2.9
2018-08-09T04:26:28.284Z,2.8
2018-08-09T04:29:27.458Z,2.9
2018-08-09T04:32:27.556Z,2.8
2018-08-09T04:35:27.647Z,2.8
2018-08-09T04:38:27.522Z,2.8
2018-08-09T04:44:27.758Z,2.8
2018-08-09T04:47:27.458Z,2.8
2018-08-09T04:50:27.611Z,3.1
2018-08-09T04:53:27.457Z,2.9
2018-08-09T04:56:27.478Z,2.9
2018-08-09T04:59:27.530Z,3
2018-08-09T05:02:27.640Z,2.8
2018-08-09T05:05:27.628Z,2.9
2018-08-09T05:08:27.617Z,2.8
2018-08-09T05:14:27.554Z,2.8
2018-08-09T05:17:27.520Z,3
2018-08-09T05:20:27.475Z,2.8
2018-08-09T05:23:27.632Z,3
2018-08-09T05:26:27.942Z,2.8
2018-08-09T05:29:27.660Z,3
2018-08-09T05:32:27.644Z,2.8
2018-08-09T05:35:27.787Z,2.8
2018-08-09T05:38:27.632Z,2.7
2018-08-09T05:44:27.450Z,2.9
2018-08-09T05:47:27.465Z,2.8
2018-08-09T05:50:27.516Z,2.8
2018-08-09T05:53:27.655Z,3
2018-08-09T05:56:27.628Z,2.7
2018-08-09T05:59:27.580Z,2.9
2018-08-09T06:02:27.574Z,2.8
2018-08-09T06:05:27.382Z,2.8
2018-08-09T06:08:27.607Z,3
2018-08-09T06:14:27.534Z,2.7
2018-08-09T06:17:27.520Z,2.7
2018-08-09T06:20:27.642Z,2.8
2018-08-09T06:23:27.614Z,2.8
2018-08-09T06:26:28.797Z,2.9
2018-08-09T06:29:27.471Z,2.8
2018-08-09T06:32:27.570Z,3
2018-08-09T06:35:27.496Z,2.6
2018-08-09T06:38:27.567Z,2.7
2018-08-09T06:44:27.518Z,3
2018-08-09T06:47:27.903Z,2.9
2018-08-09T06:50:27.542Z,3
2018-08-09T06:53:27.612Z,2.9
2018-08-09T06:56:27.384Z,2.7
2018-08-09T06:59:27.529Z,2.8
2018-08-09T07:02:27.608Z,2.8
2018-08-09T07:05:27.462Z,3
2018-08-09T07:08:27.846Z,2.9
2018-08-09T07:14:27.429Z,2.8
2018-08-09T07:17:27.487Z,2.9
2018-08-09T07:20:28.721Z,2.9
2018-08-09T07:23:27.552Z,2.8
2018-08-09T07:26:28.423Z,2.7
2018-08-09T07:29:27.845Z,2.6
2018-08-09T07:35:27.537Z,2.8
2018-08-09T07:38:27.438Z,2.9
2018-08-09T07:41:27.613Z,2.8
2018-08-09T07:44:27.382Z,2.6
2018-08-09T07:47:27.371Z,2.7
2018-08-09T07:50:27.563Z,2.8
2018-08-09T07:53:27.470Z,2.8
2018-08-09T07:56:27.450Z,2.8
2018-08-09T07:59:27.576Z,2.9
2018-08-09T08:05:27.624Z,2.8
2018-08-09T08:08:28.322Z,2.6
2018-08-09T08:11:27.673Z,2.8
2018-08-09T08:14:27.509Z,2.8
2018-08-09T08:17:27.658Z,4.2
2018-08-09T08:20:27.559Z,2.6
2018-08-09T08:23:27.520Z,3.3
2018-08-09T08:26:27.721Z,3.5
2018-08-09T08:29:27.546Z,3.4
2018-08-09T08:35:27.805Z,3.6
2018-08-09T08:38:27.404Z,3.6
2018-08-09T08:41:28.465Z,5
2018-08-09T08:44:27.580Z,6.7
2018-08-09T08:47:28.438Z,4.6
2018-08-09T08:50:27.451Z,5.3
2018-08-09T08:56:27.515Z,4
2018-08-09T08:59:27.422Z,4
2018-08-09T09:02:27.501Z,4.8
2018-08-09T09:05:27.498Z,3.6
2018-08-09T09:08:27.378Z,3.7
2018-08-09T09:11:27.312Z,3.6
2018-08-09T09:14:27.614Z,5.1
2018-08-09T09:17:27.463Z,3.3
2018-08-09T09:20:27.416Z,3.5
2018-08-09T09:26:27.415Z,4
2018-08-09T09:29:27.489Z,4.5
2018-08-09T09:32:27.366Z,3.3
2018-08-09T09:35:27.514Z,3.7
2018-08-09T09:38:27.516Z,3.5
2018-08-09T09:41:28.368Z,3.5
2018-08-09T09:44:27.406Z,3.5
2018-08-09T09:47:27.527Z,3.3
2018-08-09T09:50:27.475Z,3.5
2018-08-09T09:56:27.472Z,3.7
2018-08-09T09:59:27.547Z,3.5
2018-08-09T10:02:27.585Z,3.4
2018-08-09T10:05:27.385Z,3.4
2018-08-09T10:08:27.563Z,4.1
2018-08-09T10:11:27.606Z,3.9
2018-08-09T10:14:27.872Z,3.5
2018-08-09T10:17:27.435Z,3.7
2018-08-09T10:20:27.367Z,3.8
2018-08-09T10:26:27.514Z,3.5
2018-08-09T10:29:27.567Z,3.6
2018-08-09T10:32:27.311Z,3.8
2018-08-09T10:35:27.875Z,3.5
2018-08-09T10:38:27.499Z,3.6
2018-08-09T10:41:27.495Z,3.6
2018-08-09T10:44:27.413Z,3.7
2018-08-09T10:47:27.409Z,3.7
2018-08-09T10:50:27.421Z,3.5
2018-08-09T10:56:27.614Z,3.6
2018-08-09T10:59:27.990Z,3.3
2018-08-09T11:02:27.611Z,3.8
2018-08-09T11:05:27.582Z,3.7
2018-08-09T11:08:27.463Z,3.5
2018-08-09T11:11:27.507Z,3.4
2018-08-09T11:14:27.422Z,3.7
2018-08-09T11:17:27.563Z,3.5
2018-08-09T11:20:27.331Z,3.4
2018-08-09T11:26:27.456Z,3.5
2018-08-09T11:29:27.457Z,3.6
2018-08-09T11:32:27.309Z,3.7
2018-08-09T11:35:27.592Z,3.9
2018-08-09T11:38:27.536Z,3.9
2018-08-09T11:41:27.364Z,4.4
2018-08-09T11:44:27.359Z,4.3
2018-08-09T11:47:27.647Z,5.3
2018-08-09T11:50:27.468Z,4.9
2018-08-09T11:56:28.420Z,4.7
2018-08-09T11:59:27.493Z,4.8
2018-08-09T12:02:27.555Z,9.2
2018-08-09T12:05:27.478Z,6.3
2018-08-09T12:08:27.367Z,4.7
2018-08-09T12:11:27.313Z,5.4
2018-08-09T12:14:29.789Z,6
2018-08-09T12:17:27.283Z,3.9
2018-08-09T12:20:27.507Z,3.9
2018-08-09T12:26:27.630Z,4.6
2018-08-09T12:29:27.696Z,4.2
2018-08-09T12:32:27.513Z,3.9
2018-08-09T12:35:27.361Z,4.4
2018-08-09T12:38:27.446Z,4.4
2018-08-09T12:41:27.823Z,4.5
2018-08-09T12:44:27.554Z,4
2018-08-09T12:47:27.519Z,4.1
2018-08-09T12:50:27.387Z,4.4
2018-08-09T12:56:27.352Z,4.5
2018-08-09T12:59:27.498Z,5
2018-08-09T13:02:27.293Z,4.9
2018-08-09T13:05:27.580Z,4.1
2018-08-09T13:08:28.011Z,3.9
2018-08-09T13:11:27.544Z,4.1
2018-08-09T13:14:27.405Z,4.2
2018-08-09T13:17:27.520Z,4.2
2018-08-09T13:20:27.410Z,4.2
2018-08-09T13:26:27.580Z,5.1
2018-08-09T13:29:27.494Z,4.1
2018-08-09T13:32:27.540Z,4.2
2018-08-09T13:35:27.472Z,4.3
2018-08-09T13:38:27.493Z,4.1
2018-08-09T13:41:27.485Z,3.8
2018-08-09T13:44:27.602Z,4
2018-08-09T13:47:27.456Z,4
2018-08-09T13:50:27.640Z,3.8
2018-08-09T13:56:27.381Z,4.2
2018-08-09T13:59:27.458Z,3.9
2018-08-09T14:02:27.338Z,3.9
2018-08-09T14:05:27.534Z,3.7
2018-08-09T14:08:27.478Z,4
2018-08-09T14:11:27.388Z,3.8
2018-08-09T14:14:27.350Z,3.6
2018-08-09T14:17:27.429Z,3.9
2018-08-09T14:20:27.310Z,3.7
2018-08-09T14:26:27.485Z,3.7
2018-08-09T14:29:27.480Z,5.3
2018-08-09T14:32:27.352Z,3.6
2018-08-09T14:35:27.505Z,3.8
2018-08-09T14:38:27.491Z,3.8
2018-08-09T14:41:27.805Z,3.7
2018-08-09T14:44:27.476Z,3.5
2018-08-09T14:47:27.345Z,3.6
2018-08-09T14:50:27.485Z,3.6
2018-08-09T14:56:27.326Z,3.7
2018-08-09T14:59:27.465Z,3.7
2018-08-09T15:02:27.475Z,4.2
2018-08-09T15:05:27.477Z,3.7
2018-08-09T15:08:27.287Z,3.5
2018-08-09T15:11:27.807Z,3.7
2018-08-09T15:14:27.517Z,3.7
2018-08-09T15:17:27.483Z,3.5
2018-08-09T15:20:27.346Z,3.6
2018-08-09T15:26:27.469Z,3.6
2018-08-09T15:29:27.569Z,3.3
2018-08-09T15:32:27.404Z,3.5
2018-08-09T15:35:27.381Z,3.6
2018-08-09T15:38:27.576Z,3.6
2018-08-09T15:41:27.513Z,3.4
2018-08-09T15:44:27.371Z,3.5
2018-08-09T15:47:29.396Z,3.6
2018-08-09T15:50:27.597Z,3.2
2018-08-09T15:56:27.632Z,3.5
2018-08-09T15:59:27.429Z,3.6
2018-08-09T16:02:28.458Z,3.2
2018-08-09T16:05:27.700Z,5.6
2018-08-09T16:08:27.596Z,6.4
2018-08-09T16:11:27.464Z,5.9
2018-08-09T16:17:27.579Z,7.6
2018-08-09T16:20:27.608Z,7.6
2018-08-09T16:23:27.575Z,6.7
2018-08-09T16:26:27.508Z,5.6
2018-08-09T16:29:27.441Z,7
2018-08-09T16:32:27.542Z,6.3
2018-08-09T16:35:27.306Z,6.3
2018-08-09T16:38:27.490Z,11.9
2018-08-09T16:41:28.156Z,7.1
2018-08-09T16:47:27.255Z,6
2018-08-09T16:50:27.296Z,15.3
2018-08-09T16:53:27.466Z,7.4
2018-08-09T16:56:27.718Z,5.7
2018-08-09T17:02:13.498Z,6.9
2018-08-09T17:05:13.574Z,6.3
2018-08-09T17:08:13.873Z,6.4
2018-08-09T17:11:13.501Z,5.2
2018-08-09T17:14:13.583Z,6.7
2018-08-09T17:17:13.786Z,5.7
2018-08-09T17:20:13.774Z,4.9
2018-08-09T17:23:13.890Z,4.5
2018-08-09T17:26:13.558Z,4.9
2018-08-09T17:32:13.622Z,4.5
2018-08-09T17:35:13.766Z,5.5
2018-08-09T17:38:13.572Z,4.8
2018-08-09T17:41:13.624Z,7
2018-08-09T17:44:13.628Z,4.7
2018-08-09T17:47:13.604Z,5.7
2018-08-09T17:50:13.876Z,4.4
2018-08-09T17:53:13.833Z,5.3
2018-08-09T17:56:13.529Z,5.2
2018-08-09T18:02:13.754Z,4.7
2018-08-09T18:05:13.593Z,4.9
2018-08-09T18:08:13.554Z,4.4
2018-08-09T18:11:13.732Z,4.1
2018-08-09T18:14:13.598Z,5.7
2018-08-09T18:17:13.579Z,3.9
2018-08-09T18:20:13.712Z,4.7
2018-08-09T18:23:13.507Z,4.6
2018-08-09T18:26:13.637Z,4
2018-08-09T18:32:13.612Z,6.1
2018-08-09T18:35:13.882Z,4.6
2018-08-09T18:38:13.504Z,5.4
2018-08-09T18:41:13.714Z,5.2
2018-08-09T18:44:13.765Z,4.8
2018-08-09T18:47:13.599Z,4.6
2018-08-09T18:50:13.497Z,3.2
2018-08-09T18:53:13.745Z,7.6
2018-08-09T18:56:13.597Z,4
2018-08-09T19:02:13.636Z,3.7
2018-08-09T19:05:13.564Z,4.3
2018-08-09T19:08:13.580Z,6
2018-08-09T19:11:13.898Z,3.3
2018-08-09T19:14:13.664Z,3.5
2018-08-09T19:17:13.807Z,4
2018-08-09T19:20:13.753Z,3
2018-08-09T19:23:13.585Z,3.8
2018-08-09T19:26:13.727Z,3.3
2018-08-09T19:32:13.671Z,3
2018-08-09T19:35:13.678Z,3.4
2018-08-09T19:38:14.384Z,3.8
2018-08-09T19:41:13.733Z,2.7
2018-08-09T19:44:13.538Z,4.7
2018-08-09T19:47:13.515Z,2.8
2018-08-09T19:50:13.549Z,3.1
2018-08-09T19:55:02.961Z,4
2018-08-09T19:58:02.895Z,3.7
2018-08-09T20:01:03.167Z,3
2018-08-09T20:04:02.857Z,14.2
2018-08-09T20:07:03.028Z,14.8
2018-08-09T20:10:02.849Z,7.9
2018-08-09T20:13:02.970Z,7.6
2018-08-09T20:16:03.327Z,10.4
2018-08-09T20:19:02.912Z,7.3
2018-08-09T20:25:02.955Z,6.2
2018-08-09T20:28:02.955Z,7.9
2018-08-09T20:31:03.081Z,6.1
2018-08-09T20:34:03.463Z,4.3
2018-08-09T20:37:02.909Z,4.3
2018-08-09T20:40:03.250Z,4.6
2018-08-09T20:43:02.912Z,4.1
2018-08-09T20:46:02.998Z,3.8
2018-08-09T20:49:02.992Z,4.4
2018-08-09T20:55:02.945Z,4.9
2018-08-09T20:58:02.865Z,4.4
2018-08-09T21:01:02.883Z,3.3
2018-08-09T21:04:02.951Z,4.9
2018-08-09T21:07:03.138Z,5.7
2018-08-09T21:10:02.832Z,3.9
2018-08-09T21:13:03.189Z,3.6
2018-08-09T21:16:02.921Z,7.4
2018-08-09T21:19:02.998Z,5.2
2018-08-09T21:25:03.015Z,4.7
2018-08-09T21:28:03.046Z,4.3
2018-08-09T21:31:03.048Z,3.3
2018-08-09T21:34:03.123Z,2.8
2018-08-09T21:37:02.990Z,3
2018-08-09T21:40:03.120Z,3
2018-08-09T21:43:02.853Z,2.8
2018-08-09T21:46:03.055Z,2.8
2018-08-09T21:49:03.220Z,2.8
2018-08-09T21:55:02.938Z,2.8
2018-08-09T21:58:03.029Z,4.3
2018-08-09T22:01:03.134Z,2.8
2018-08-09T22:04:03.230Z,3.2
2018-08-09T22:07:03.057Z,3.5
2018-08-09T22:10:03.128Z,2.9
2018-08-09T22:13:03.028Z,2.7
2018-08-09T22:16:03.048Z,2.8
2018-08-09T22:19:03.052Z,2.6
2018-08-09T22:25:02.974Z,4.2
2018-08-09T22:28:03.291Z,2.4
2018-08-09T22:31:03.013Z,3
2018-08-09T22:34:02.893Z,3
2018-08-09T22:37:02.982Z,2.6
2018-08-09T22:40:02.924Z,3.2
2018-08-09T22:43:02.967Z,2.4
2018-08-09T22:46:02.881Z,2.7
2018-08-09T22:49:02.944Z,2.3
2018-08-09T22:55:02.765Z,2.3
2018-08-09T22:58:02.815Z,2.4
2018-08-09T23:01:02.883Z,2.3
2018-08-09T23:04:02.913Z,2.4
2018-08-09T23:07:02.968Z,2.7
2018-08-09T23:10:02.794Z,2.9
2018-08-09T23:13:02.824Z,2.5
2018-08-09T23:16:02.816Z,2.5
2018-08-09T23:19:02.977Z,2.6
2018-08-09T23:25:02.795Z,2.5
2018-08-09T23:28:03.213Z,2.4
2018-08-09T23:31:02.938Z,2.2
2018-08-09T23:34:02.683Z,3.2
2018-08-09T23:37:03.107Z,2.5
2018-08-09T23:40:02.860Z,2.3
2018-08-09T23:43:02.736Z,2.2
2018-08-09T23:46:02.865Z,2.2
2018-08-09T23:49:02.810Z,2.2
2018-08-09T23:55:02.940Z,2.5
2018-08-09T23:58:03.060Z,2.3
